• Join FlightAware (Why Join?)
  • Login
  • US Flag 
01:25AM EDT


 

Airport Tracker/Info


-or-


 

Live Flight TrackerFlight Track Log ✈ AAL2360 ✈ 16-Jun-2013 ✈ KDFW - KORD

Flight Track Log - Related Links

Times and Time Zones

All times are in EDT time to prevent confusion due to time zone crossing. See the AAL2360 flight status page for this flight to view local times or setup timezone preferences in your user account.

Time Position Orientation Groundspeed Altitude Reporting Facility
EDT Latitude Longitude Course Direction KTS MPH feet Rate Location/Type
04:35PM 32.8833 -97.0167 357° North 176 203 1,300  Level Dallas / Fort Worth TRACON
04:35PM 32.8667 -97.0167 180° South 181 208 2,000 1,740 Climbing Dallas / Fort Worth TRACON
04:36PM 32.8000 -97.0000 168° South 252 290 3,600 2,340 Climbing Dallas / Fort Worth TRACON
04:37PM 32.8618 -96.8000 North  Level FlightAware Approximate
04:37PM 32.7667 -96.9167 115° Southeast 283 326 7,000  Level Dallas / Fort Worth TRACON
04:38PM 32.9840 -96.8000 North  Level FlightAware Approximate
04:38PM 32.7667 -96.8167 90° East 309 356 9,800  Level Dallas / Fort Worth TRACON
04:39PM 33.1062 -96.8028 357° North  Level FlightAware Approximate
04:39PM 32.8500 -96.8000 10° North 301 346 12,400  Level Dallas / Fort Worth TRACON
04:40PM 33.2282 -96.8115 357° North  Level FlightAware Approximate
04:40PM 32.9167 -96.8000 360° North 311 358 14,800  Level Dallas / Fort Worth TRACON
04:41PM 33.0167 -96.8000 360° North 321 369 16,400 840 Climbing Dallas / Fort Worth TRACON
04:43PM 33.1700 -96.8103 357° North 410 472 17,000 480 Climbing Fort Worth Center
04:44PM 33.2703 -96.8147 358° North 387 445 17,700 1,620 Climbing Fort Worth Center
04:45PM 33.3622 -96.8214 357° North 345 397 20,300 2,040 Climbing Fort Worth Center
04:46PM 33.4539 -96.8183 North 330 380 21,800 1,140 Climbing Fort Worth Center
04:47PM 33.5478 -96.7681 24° Northeast 336 387 22,600 660 Climbing Fort Worth Center
04:48PM 33.6433 -96.7025 30° Northeast 375 432 23,200 840 Climbing Fort Worth Center
04:49PM 33.7411 -96.6392 28° Northeast 406 467 24,300 1,140 Climbing Fort Worth Center
04:50PM 33.8511 -96.5681 28° Northeast 431 496 25,500 1,440 Climbing Fort Worth Center
04:51PM 33.9656 -96.4944 28° Northeast 445 512 27,200 1,440 Climbing Fort Worth Center
04:52PM 34.0775 -96.4181 29° Northeast 458 527 28,400 1,560 Climbing Fort Worth Center
04:53PM 34.1958 -96.3239 33° Northeast 458 527 30,400 1,560 Climbing Fort Worth Center
04:54PM 34.3014 -96.2344 35° Northeast 464 534 31,600 1,200 Climbing Fort Worth Center
04:55PM 34.4092 -96.1475 34° Northeast 464 534 32,900 660 Climbing Fort Worth Center
04:56PM 34.5125 -96.0628 34° Northeast 457 526 33,000  Climbing Fort Worth Center
04:57PM 34.6200 -95.9753 34° Northeast 457 526 33,000  Level Fort Worth Center
04:58PM 34.7275 -95.8875 34° Northeast 462 532 33,000  Level Fort Worth Center
04:59PM 34.8306 -95.8022 34° Northeast 469 540 33,000  Level Fort Worth Center
05:00PM 34.9442 -95.6986 37° Northeast 469 540 33,000  Level Fort Worth Center
05:02PM 35.1558 -95.5000 37° Northeast 476 548 33,000  Level Memphis Center
05:03PM 35.2600 -95.4019 38° Northeast 471 542 33,000  Level Memphis Center
05:03PM 35.2778 -95.3806 44° Northeast 473 544 33,000  Level Kansas City Center
05:04PM 35.3642 -95.2989 38° Northeast 476 548 33,000  Level Memphis Center
05:05PM 35.4703 -95.1981 38° Northeast 476 548 33,000  Level Memphis Center
05:06PM 35.5764 -95.0969 38° Northeast 476 548 33,000  Level Memphis Center
05:07PM 35.6806 -94.9931 39° Northeast 476 548 33,000  Level Memphis Center
05:07PM 35.7214 -94.9561 36° Northeast 482 555 33,000  Level Kansas City Center
05:08PM 35.8264 -94.8536 38° Northeast 483 556 33,000  Level Kansas City Center
05:09PM 35.8942 -94.7900 37° Northeast 481 554 33,000  Level Memphis Center
05:10PM 36.0000 -94.6878 38° Northeast 481 554 33,000  Level Memphis Center
05:11PM 36.1036 -94.5856 39° Northeast 481 554 33,000  Level Memphis Center
05:11PM 36.1642 -94.5264 38° Northeast 484 557 33,000  Level Kansas City Center
05:12PM 36.2706 -94.4231 38° Northeast 485 558 33,000  Level Kansas City Center
05:13PM 36.3761 -94.3189 38° Northeast 485 558 33,000  Level Kansas City Center
05:14PM 36.4817 -94.2142 39° Northeast 486 559 33,000  Level Kansas City Center
05:15PM 36.6097 -94.0894 38° Northeast 488 562 33,000  Level Kansas City Center
05:16PM 36.7150 -93.9839 39° Northeast 488 562 33,000  Level Kansas City Center
05:17PM 36.8214 -93.8800 38° Northeast 486 559 33,000  Level Kansas City Center
05:18PM 36.9256 -93.7739 39° Northeast 485 558 33,000  Level Kansas City Center
05:19PM 37.0250 -93.6731 39° Northeast 484 557 33,000  Level Kansas City Center
05:20PM 37.1525 -93.5450 39° Northeast 487 560 33,000  Level Kansas City Center
05:21PM 37.2583 -93.4383 39° Northeast 486 559 33,000  Level Kansas City Center
05:23PM 37.3667 -93.3328 38° Northeast 489 563 33,000  Level Kansas City Center
05:24PM 37.4736 -93.2278 38° Northeast 488 562 33,000  Level Kansas City Center
05:25PM 37.5847 -93.1272 36° Northeast 488 562 33,000  Level Kansas City Center
05:26PM 37.6958 -93.0247 36° Northeast 492 566 33,000  Level Kansas City Center
05:27PM 37.8275 -92.8994 37° Northeast 490 564 33,000  Level Kansas City Center
05:28PM 37.9378 -92.7972 36° Northeast 488 562 33,000  Level Kansas City Center
05:29PM 38.0486 -92.6936 36° Northeast 489 563 33,000  Level Kansas City Center
05:30PM 38.1578 -92.5869 38° Northeast 493 567 33,000  Level Kansas City Center
05:31PM 38.2722 -92.4792 36° Northeast 493 567 33,000  Level Kansas City Center
05:32PM 38.3833 -92.3725 37° Northeast 493 567 33,000  Level Kansas City Center
05:33PM 38.4939 -92.2661 37° Northeast 495 570 33,000  Level Kansas City Center
05:34PM 38.6044 -92.1592 37° Northeast 497 572 33,000  Level Kansas City Center
05:35PM 38.7158 -92.0525 37° Northeast 496 571 33,000  Level Kansas City Center
05:36PM 38.8486 -91.9236 37° Northeast 497 572 33,000  Level Kansas City Center
05:37PM 38.9600 -91.8136 38° Northeast 501 577 33,000  Level Kansas City Center
05:38PM 39.0689 -91.7058 38° Northeast 497 572 33,000  Level Kansas City Center
05:39PM 39.1747 -91.6053 36° Northeast 501 577 33,000  Level Kansas City Center
05:40PM 39.2861 -91.4958 37° Northeast 502 578 33,000  Level Kansas City Center
05:41PM 39.3989 -91.3856 37° Northeast 505 581 33,000  Level Kansas City Center
05:42PM 39.5325 -91.2533 37° Northeast 504 580 33,000  Level Kansas City Center
05:43PM 39.6436 -91.1414 38° Northeast 504 580 33,000  Level Kansas City Center
05:44PM 39.7544 -91.0308 37° Northeast 502 578 33,000  Level Kansas City Center
05:45PM 39.8658 -90.9200 37° Northeast 499 574 33,000  Level Kansas City Center
05:46PM 39.9739 -90.8092 38° Northeast 495 570 33,000  Level Kansas City Center
05:47PM 40.0792 -90.7014 38° Northeast 485 558 33,000  Level Kansas City Center
05:48PM 40.1853 -90.5942 38° Northeast 482 555 33,000  Level Kansas City Center
05:49PM 40.3139 -90.4644 38° Northeast 483 556 33,000  Level Kansas City Center
05:50PM 40.4194 -90.3569 38° Northeast 482 555 33,000  Level Kansas City Center
05:51PM 40.5253 -90.2475 38° Northeast 484 557 33,000  Level Chicago Center
05:52PM 40.6411 -90.1278 38° Northeast 487 560 33,000 -60 Level Chicago Center
05:54PM 40.7494 -90.0178 38° Northeast 491 565 32,900 -1,260 Descending Chicago Center
05:55PM 40.8556 -89.9081 38° Northeast 487 560 30,400 -2,340 Descending Chicago Center
05:56PM 40.9553 -89.7989 40° Northeast 473 544 28,100 -2,100 Descending Chicago Center
05:57PM 41.0681 -89.7194 28° Northeast 467 537 26,100 -1,980 Descending Chicago Center
05:58PM 41.1769 -89.6489 26° Northeast 445 512 24,100 -2,040 Descending Chicago Center
05:59PM 41.2558 -89.4742 59° Northeast 461 531 22,000 -2,220 Descending Chicago Center
06:00PM 41.3083 -89.3167 66° East 465 535 19,500 -2,100 Descending Chicago Center
06:01PM 41.3586 -89.1722 65° Northeast 448 516 17,700 -1,860 Descending Chicago Center
06:02PM 41.4017 -89.0308 68° East 419 482 15,700 -2,280 Descending Chicago Center
06:03PM 41.4478 -88.8950 66° East 404 465 13,100 -2,280 Descending Chicago Center
06:04PM 41.5017 -88.7356 66° East 393 452 11,000 -1,020 Descending Chicago Center
06:05PM 41.5511 -88.6094 62° Northeast 386 444 11,000  Level Chicago Center
06:06PM 41.6031 -88.4847 61° Northeast 384 442 11,000  Level Chicago Center
06:07PM 41.6656 -88.3689 54° Northeast 380 437 11,000 -420 Level Chicago Center
06:08PM 41.7239 -88.2656 53° Northeast 348 400 10,200 -960 Descending Chicago Center
06:09PM 41.7778 -88.1772 51° Northeast 310 357 9,100 -1,200 Descending Chicago Center
06:10PM 41.8222 -88.0658 62° Northeast 293 337 7,800 -1,020 Descending Chicago Center
06:11PM 41.8500 -87.9614 70° East 298 343 7,000 -420 Descending Chicago Center
06:12PM 41.8725 -87.8578 74° East 292 336 7,000 -120 Level Chicago Center
06:13PM 41.8814 -87.7589 83° East 275 316 6,800 -960 Descending Chicago Center
06:14PM 41.8825 -87.6681 89° East 248 285 5,000 -1,740 Descending Chicago Center